Terminal Aerodrome Forecast
Issued by NWS Shreveport, LA

Home | Current Version | Previous Version | Text Only | Print | Product List | Glossary On
Versions: 1 2 3 4 5 6 7 8 9 10 11 12 13 14 15 16 17
650
FTUS44 KSHV 271735
TAFSHV
TAF
KSHV 271735Z 2718/2818 31008KT 5SM -SHRA BR VCTS SCT035 OVC060CB
      TEMPO 2718/2722 VRB11G20KT 2SM TSRA BR OVC035CB
     FM272300 16008KT P6SM -SHRA VCTS SCT020 OVC050CB
     FM280300 17008KT P6SM BKN020 OVC050
     FM281100 16007KT 4SM BR OVC015
     FM281500 18008KT P6SM SCT015 BKN035=

USA.gov is the U.S. government's official web portal to all federal, state and local government web resources and services.